createdAt,value
2022-09-20T00:00:34.473Z,0.00
2022-09-20T00:01:34.627Z,0.00
2022-09-20T00:02:34.873Z,0.00
2022-09-20T00:03:34.926Z,0.00
2022-09-20T00:04:35.153Z,0.00
2022-09-20T00:05:35.245Z,0.00
2022-09-20T00:06:35.386Z,0.00
2022-09-20T00:07:35.527Z,0.00
2022-09-20T00:08:35.667Z,0.00
2022-09-20T00:09:35.802Z,0.00
2022-09-20T00:10:36.009Z,0.00
2022-09-20T00:11:36.083Z,0.00
2022-09-20T00:12:36.211Z,0.00
2022-09-20T00:13:36.382Z,0.00
2022-09-20T00:14:36.545Z,0.00
2022-09-20T00:15:36.703Z,0.00
2022-09-20T00:16:36.884Z,0.00
2022-09-20T00:17:36.938Z,0.00
2022-09-20T00:18:37.068Z,0.00
2022-09-20T00:19:37.200Z,0.00
2022-09-20T00:20:37.354Z,0.00
2022-09-20T00:21:37.463Z,0.00
2022-09-20T00:22:37.684Z,0.00
2022-09-20T00:23:38.464Z,0.00
2022-09-20T00:24:37.872Z,0.00
2022-09-20T00:25:37.941Z,0.00
2022-09-20T00:26:38.074Z,0.00
2022-09-20T00:27:38.255Z,0.00
2022-09-20T00:28:38.337Z,0.00
2022-09-20T00:29:38.429Z,0.00
2022-09-20T00:30:38.578Z,0.00
2022-09-20T00:31:38.740Z,0.00
2022-09-20T00:32:38.802Z,0.00
2022-09-20T00:33:38.977Z,0.00
2022-09-20T00:34:39.091Z,0.00
2022-09-20T00:35:39.243Z,0.00
2022-09-20T00:36:39.389Z,0.00
2022-09-20T00:37:39.497Z,0.00
2022-09-20T00:38:39.642Z,0.00
2022-09-20T00:39:39.791Z,0.00
2022-09-20T00:40:40.216Z,0.00
2022-09-20T00:41:40.018Z,0.00
2022-09-20T00:42:40.130Z,0.00
2022-09-20T00:43:40.251Z,0.00
2022-09-20T00:44:40.370Z,0.00
2022-09-20T00:45:40.572Z,0.00
2022-09-20T00:46:40.611Z,0.00
2022-09-20T00:47:40.771Z,0.00
2022-09-20T00:48:40.911Z,0.00
2022-09-20T00:49:41.079Z,0.00
2022-09-20T00:50:41.190Z,0.00
2022-09-20T00:51:41.351Z,0.00
2022-09-20T00:52:41.560Z,0.00
2022-09-20T00:53:41.639Z,0.00
2022-09-20T00:54:41.790Z,0.00
2022-09-20T00:55:41.930Z,0.00
2022-09-20T00:56:42.087Z,0.00
2022-09-20T00:57:42.250Z,0.00
2022-09-20T00:58:42.370Z,0.00
2022-09-20T00:59:42.486Z,0.00
2022-09-20T01:00:42.694Z,0.00
2022-09-20T01:01:42.805Z,0.00
2022-09-20T01:02:42.932Z,0.00
2022-09-20T01:03:43.060Z,0.00
2022-09-20T01:04:43.188Z,0.00
2022-09-20T01:05:43.310Z,0.00
2022-09-20T01:06:43.475Z,0.00
2022-09-20T01:07:43.608Z,0.00
2022-09-20T01:08:43.729Z,0.00
2022-09-20T01:09:43.859Z,0.00
2022-09-20T01:10:43.985Z,0.00
2022-09-20T01:11:44.167Z,0.00
2022-09-20T01:12:44.338Z,0.00
2022-09-20T01:13:44.480Z,0.00
2022-09-20T01:14:44.570Z,0.00
2022-09-20T01:15:44.674Z,0.00
2022-09-20T01:16:44.971Z,0.00
2022-09-20T01:17:45.036Z,0.00
2022-09-20T01:18:45.195Z,0.00
2022-09-20T01:19:45.348Z,0.00
2022-09-20T01:20:45.475Z,0.00
2022-09-20T01:21:45.667Z,0.00
2022-09-20T01:22:45.835Z,0.00
2022-09-20T01:23:45.965Z,0.00
2022-09-20T01:24:46.219Z,0.00
2022-09-20T01:25:46.237Z,0.00
2022-09-20T01:26:46.376Z,0.00
2022-09-20T01:27:46.560Z,0.00
2022-09-20T01:28:46.686Z,0.00
2022-09-20T01:29:46.883Z,0.00
2022-09-20T01:30:46.944Z,0.00
2022-09-20T01:31:47.141Z,0.00
2022-09-20T01:32:47.273Z,0.00
2022-09-20T01:33:47.403Z,0.00
2022-09-20T01:34:47.546Z,0.00
2022-09-20T01:35:47.725Z,0.00
2022-09-20T01:36:47.852Z,0.00
2022-09-20T01:37:47.992Z,0.00
2022-09-20T01:38:48.145Z,0.00
2022-09-20T01:39:48.265Z,0.00
2022-09-20T01:40:48.489Z,0.00
2022-09-20T01:41:48.493Z,0.00
2022-09-20T01:42:48.653Z,0.00
2022-09-20T01:43:48.785Z,0.00
2022-09-20T01:44:48.904Z,0.00
2022-09-20T01:45:49.127Z,0.00
2022-09-20T01:46:49.176Z,0.00
2022-09-20T01:47:49.341Z,0.00
2022-09-20T01:48:49.480Z,0.00
2022-09-20T01:49:49.614Z,0.00
2022-09-20T01:50:49.761Z,0.00
2022-09-20T01:51:49.909Z,0.00
2022-09-20T01:52:50.094Z,0.00
2022-09-20T01:53:50.274Z,0.00
2022-09-20T01:54:50.382Z,0.00
2022-09-20T01:55:50.540Z,0.00
2022-09-20T01:56:50.682Z,0.00
2022-09-20T01:57:50.862Z,0.00
2022-09-20T01:59:07.283Z,0.00
2022-09-20T01:59:52.149Z,0.00
2022-09-20T02:00:51.329Z,0.00
2022-09-20T02:01:51.523Z,0.00
2022-09-20T02:02:51.653Z,0.00
2022-09-20T02:03:51.751Z,0.00
2022-09-20T02:04:51.923Z,0.00
2022-09-20T02:05:52.051Z,0.00
2022-09-20T02:06:52.179Z,0.00
2022-09-20T02:07:52.330Z,0.00
2022-09-20T02:08:52.503Z,0.00
2022-09-20T02:09:52.631Z,0.00
2022-09-20T02:10:52.759Z,0.00
2022-09-20T02:11:52.881Z,0.00
2022-09-20T02:12:53.032Z,0.00
2022-09-20T02:13:53.220Z,0.00
2022-09-20T02:14:53.331Z,0.00
2022-09-20T02:15:53.446Z,0.00
2022-09-20T02:16:53.660Z,0.00
2022-09-20T02:17:53.768Z,0.00
2022-09-20T02:18:53.927Z,0.00
2022-09-20T02:19:54.067Z,0.00
2022-09-20T02:20:54.228Z,0.00
2022-09-20T02:21:54.349Z,0.00
2022-09-20T02:22:54.505Z,0.00
2022-09-20T02:23:54.673Z,0.00
2022-09-20T02:24:54.724Z,0.00
2022-09-20T02:25:54.875Z,0.00
2022-09-20T02:26:55.030Z,0.00
2022-09-20T02:27:55.169Z,0.00
2022-09-20T02:28:55.335Z,0.00
2022-09-20T02:29:55.496Z,0.00
2022-09-20T02:30:55.669Z,0.00
2022-09-20T02:31:55.859Z,0.00
2022-09-20T02:32:56.032Z,0.00
2022-09-20T02:33:56.076Z,0.00
2022-09-20T02:34:56.247Z,0.00
2022-09-20T02:35:56.397Z,0.00
2022-09-20T02:36:56.527Z,0.00
2022-09-20T02:37:56.716Z,0.00
2022-09-20T02:38:56.842Z,0.00
2022-09-20T02:39:57.028Z,0.00
2022-09-20T02:40:57.073Z,0.00
2022-09-20T02:41:57.291Z,0.00
2022-09-20T02:42:57.427Z,0.00
2022-09-20T02:43:57.567Z,0.00
2022-09-20T02:44:57.745Z,0.00
2022-09-20T02:45:57.874Z,0.00
2022-09-20T02:46:57.934Z,0.00
2022-09-20T02:47:58.076Z,0.00
2022-09-20T02:48:58.233Z,0.00
2022-09-20T02:49:58.405Z,0.00
2022-09-20T02:50:58.495Z,0.00
2022-09-20T02:51:58.635Z,0.00
2022-09-20T02:52:58.786Z,0.00
2022-09-20T02:53:58.934Z,0.00
2022-09-20T02:54:59.072Z,0.00
2022-09-20T02:55:59.242Z,0.00
2022-09-20T02:56:59.332Z,0.00
2022-09-20T02:57:59.477Z,0.00
2022-09-20T02:58:59.662Z,0.00
2022-09-20T02:59:59.754Z,0.00
2022-09-20T03:00:59.922Z,0.00
2022-09-20T03:02:00.137Z,0.00
2022-09-20T03:03:00.191Z,0.00
2022-09-20T03:04:00.342Z,0.00
2022-09-20T03:05:00.512Z,0.00
2022-09-20T03:06:00.673Z,0.00
2022-09-20T03:07:00.791Z,0.00
2022-09-20T03:08:03.062Z,0.00
2022-09-20T03:09:01.092Z,0.00
2022-09-20T03:10:01.252Z,0.00
2022-09-20T03:11:01.364Z,0.00
2022-09-20T03:12:01.506Z,0.00
2022-09-20T03:13:01.652Z,0.00
2022-09-20T03:14:03.254Z,0.00
2022-09-20T03:15:02.153Z,0.00
2022-09-20T03:16:02.094Z,0.00
2022-09-20T03:17:02.361Z,0.00
2022-09-20T03:18:02.401Z,0.00
2022-09-20T03:19:02.500Z,0.00
2022-09-20T03:20:02.632Z,0.00
2022-09-20T03:21:02.784Z,0.00
2022-09-20T03:22:02.950Z,0.00
2022-09-20T03:23:03.069Z,0.00
2022-09-20T03:24:03.224Z,0.00
2022-09-20T03:25:03.352Z,0.00
2022-09-20T03:26:03.490Z,0.00
2022-09-20T03:27:03.630Z,0.00
2022-09-20T03:28:03.770Z,0.00
2022-09-20T03:29:03.909Z,0.00
2022-09-20T03:30:04.031Z,0.00
2022-09-20T03:31:04.191Z,0.00
2022-09-20T03:32:04.386Z,0.00
2022-09-20T03:33:04.469Z,0.00
2022-09-20T03:34:04.600Z,0.00
2022-09-20T03:35:04.809Z,0.00
2022-09-20T03:36:04.911Z,0.00
2022-09-20T03:37:05.029Z,0.00
2022-09-20T03:38:05.166Z,0.00
2022-09-20T03:39:05.279Z,0.00
2022-09-20T03:40:05.460Z,0.00
2022-09-20T03:41:05.506Z,0.00
2022-09-20T03:42:05.638Z,0.00
2022-09-20T03:43:05.854Z,0.00
2022-09-20T03:44:06.069Z,0.00
2022-09-20T03:45:06.099Z,0.00
2022-09-20T03:46:06.292Z,0.00
2022-09-20T03:47:06.355Z,0.00
2022-09-20T03:48:06.517Z,0.00
2022-09-20T03:49:06.687Z,0.00
2022-09-20T03:50:06.807Z,0.00
2022-09-20T03:51:06.936Z,0.00
2022-09-20T03:52:07.069Z,0.00
2022-09-20T03:53:07.185Z,0.00
2022-09-20T03:54:07.332Z,0.00
2022-09-20T03:55:07.457Z,0.00
2022-09-20T03:56:07.598Z,0.00
2022-09-20T03:57:07.731Z,0.00
2022-09-20T03:58:09.026Z,0.00
2022-09-20T03:59:08.090Z,0.00
2022-09-20T04:00:08.148Z,0.00
2022-09-20T04:01:08.394Z,0.00
2022-09-20T04:02:10.010Z,0.00
2022-09-20T04:03:08.613Z,0.00
2022-09-20T04:04:08.756Z,0.00
2022-09-20T04:05:09.589Z,0.00
2022-09-20T04:06:09.027Z,0.00
2022-09-20T04:07:09.172Z,0.00
2022-09-20T04:08:09.313Z,0.00
2022-09-20T04:09:09.475Z,0.00
2022-09-20T04:10:09.638Z,0.00
2022-09-20T04:11:09.746Z,0.00
2022-09-20T04:12:09.881Z,0.00
2022-09-20T04:13:10.046Z,0.00
2022-09-20T04:14:11.524Z,0.00
2022-09-20T04:15:10.337Z,0.00
2022-09-20T04:16:10.540Z,0.00
2022-09-20T04:17:10.595Z,0.00
2022-09-20T04:18:10.726Z,0.00
2022-09-20T04:19:10.842Z,0.00
2022-09-20T04:20:11.001Z,0.00
2022-09-20T04:21:11.123Z,0.00
2022-09-20T04:22:11.244Z,0.00
2022-09-20T04:23:11.362Z,0.00
2022-09-20T04:24:11.490Z,0.00
2022-09-20T04:25:11.676Z,0.00
2022-09-20T04:26:11.752Z,0.00
2022-09-20T04:27:11.899Z,0.00
2022-09-20T04:28:12.042Z,0.00
2022-09-20T04:29:12.133Z,0.00
2022-09-20T04:30:12.264Z,0.00
2022-09-20T04:31:12.424Z,0.00
2022-09-20T04:32:12.778Z,0.00
2022-09-20T04:33:12.729Z,0.00
2022-09-20T04:34:12.881Z,0.00
2022-09-20T04:35:13.015Z,0.00
2022-09-20T04:36:13.140Z,0.00
2022-09-20T04:37:13.301Z,0.00
2022-09-20T04:38:13.425Z,0.00
2022-09-20T04:39:13.540Z,0.00
2022-09-20T04:40:13.789Z,0.00
2022-09-20T04:41:13.855Z,0.00
2022-09-20T04:42:13.981Z,0.00
2022-09-20T04:43:14.092Z,0.00
2022-09-20T04:44:14.268Z,0.00
2022-09-20T04:45:14.401Z,0.00
2022-09-20T04:46:14.654Z,4.00
2022-09-20T04:47:14.680Z,4.00
2022-09-20T04:48:14.810Z,0.00
2022-09-20T04:49:14.930Z,0.00
2022-09-20T04:50:15.050Z,4.00
2022-09-20T04:51:15.177Z,0.00
2022-09-20T04:52:15.297Z,4.00
2022-09-20T04:53:15.442Z,4.00
2022-09-20T04:54:15.552Z,4.00
2022-09-20T04:55:15.688Z,4.00
2022-09-20T04:56:15.837Z,4.00
2022-09-20T04:57:15.979Z,12.00
2022-09-20T04:58:16.162Z,8.00
2022-09-20T04:59:16.238Z,12.00
2022-09-20T05:00:16.489Z,16.00
2022-09-20T05:01:16.823Z,16.00
2022-09-20T05:02:16.804Z,20.00
2022-09-20T05:03:16.799Z,24.00
2022-09-20T05:04:16.939Z,24.00
2022-09-20T05:05:17.074Z,28.00
2022-09-20T05:06:17.210Z,32.00
2022-09-20T05:07:17.371Z,40.00
2022-09-20T05:08:17.563Z,44.00
2022-09-20T05:09:17.676Z,48.00
2022-09-20T05:10:17.798Z,56.00
2022-09-20T05:11:17.919Z,64.00
2022-09-20T05:12:18.048Z,72.00
2022-09-20T05:13:18.178Z,80.00
2022-09-20T05:14:18.428Z,92.00
2022-09-20T05:15:18.508Z,100.00
2022-09-20T05:16:18.738Z,112.00
2022-09-20T05:17:18.755Z,120.00
2022-09-20T05:18:18.887Z,132.00
2022-09-20T05:19:19.048Z,144.00
2022-09-20T05:20:19.216Z,156.00
2022-09-20T05:21:19.343Z,168.00
2022-09-20T05:22:19.475Z,184.00
2022-09-20T05:23:19.620Z,200.00
2022-09-20T05:24:19.757Z,220.00
2022-09-20T05:25:19.843Z,240.00
2022-09-20T05:26:19.985Z,264.00
2022-09-20T05:27:20.100Z,284.00
2022-09-20T05:28:20.249Z,312.00
2022-09-20T05:29:20.344Z,336.00
2022-09-20T05:30:20.488Z,364.00
2022-09-20T05:31:20.659Z,392.00
2022-09-20T05:32:20.758Z,424.00
2022-09-20T05:33:20.924Z,460.00
2022-09-20T05:34:21.084Z,500.00
2022-09-20T05:35:21.272Z,536.00
2022-09-20T05:36:21.457Z,572.00
2022-09-20T05:37:21.518Z,600.00
2022-09-20T05:38:21.700Z,632.00
2022-09-20T05:39:21.771Z,656.00
2022-09-20T05:40:22.010Z,684.00
2022-09-20T05:41:22.074Z,704.00
2022-09-20T05:42:22.215Z,732.00
2022-09-20T05:43:22.361Z,772.00
2022-09-20T05:44:22.494Z,804.00
2022-09-20T05:45:22.642Z,832.00
2022-09-20T05:46:22.747Z,864.00
2022-09-20T05:47:22.905Z,896.00
2022-09-20T05:48:23.032Z,924.00
2022-09-20T05:49:23.166Z,952.00
2022-09-20T05:50:23.314Z,980.00
2022-09-20T05:51:23.503Z,1004.00
2022-09-20T05:52:23.574Z,1020.00
2022-09-20T05:53:23.703Z,1020.00
2022-09-20T05:54:23.844Z,1032.00
2022-09-20T05:55:24.063Z,1064.00
2022-09-20T05:56:24.104Z,1116.00
2022-09-20T05:57:24.232Z,1180.00
2022-09-20T05:58:24.364Z,1264.00
2022-09-20T05:59:24.543Z,1356.00
2022-09-20T06:00:24.624Z,1480.00
2022-09-20T06:01:24.831Z,1648.00
2022-09-20T06:02:25.007Z,1800.00
2022-09-20T06:03:25.039Z,1932.00
2022-09-20T06:04:25.180Z,2048.00
2022-09-20T06:05:25.333Z,2148.00
2022-09-20T06:06:28.060Z,2184.00
2022-09-20T06:07:26.581Z,2172.00
2022-09-20T06:08:25.713Z,2092.00
2022-09-20T06:09:25.856Z,2000.00
2022-09-20T06:10:25.992Z,1928.00
2022-09-20T06:11:26.193Z,1908.00
2022-09-20T06:12:26.275Z,1948.00
2022-09-20T06:13:26.360Z,1980.00
2022-09-20T06:14:26.505Z,1996.00
2022-09-20T06:15:27.403Z,2016.00
2022-09-20T06:16:27.087Z,2060.00
2022-09-20T06:17:27.231Z,2116.00
2022-09-20T06:18:27.079Z,2180.00
2022-09-20T06:19:27.202Z,2240.00
2022-09-20T06:20:27.437Z,2260.00
2022-09-20T06:21:27.509Z,2260.00
2022-09-20T06:22:27.673Z,2252.00
2022-09-20T06:23:27.811Z,2236.00
2022-09-20T06:24:27.971Z,2232.00
2022-09-20T06:25:28.130Z,2220.00
2022-09-20T06:26:28.269Z,2216.00
2022-09-20T06:27:28.443Z,2240.00
2022-09-20T06:28:28.551Z,2272.00
2022-09-20T06:29:28.650Z,2292.00
2022-09-20T06:30:28.821Z,2308.00
2022-09-20T06:31:28.911Z,2336.00
2022-09-20T06:32:29.059Z,2384.00
2022-09-20T06:33:29.154Z,2444.00
2022-09-20T06:34:29.258Z,2500.00
2022-09-20T06:35:29.372Z,2516.00
2022-09-20T06:36:29.554Z,2496.00
2022-09-20T06:37:29.650Z,2476.00
2022-09-20T06:38:29.758Z,2504.00
2022-09-20T06:39:29.903Z,2508.00
2022-09-20T06:40:30.066Z,2572.00
2022-09-20T06:41:30.168Z,2576.00
2022-09-20T06:42:30.268Z,2596.00
2022-09-20T06:43:30.367Z,2660.00
2022-09-20T06:44:30.467Z,2740.00
2022-09-20T06:45:30.628Z,2880.00
2022-09-20T06:46:30.720Z,3064.00
2022-09-20T06:47:30.868Z,3128.00
2022-09-20T06:48:30.968Z,3264.00
2022-09-20T06:49:31.141Z,3320.00
2022-09-20T06:50:31.229Z,3480.00
2022-09-20T06:51:31.335Z,3632.00
2022-09-20T06:52:31.488Z,3764.00
2022-09-20T06:53:31.610Z,4000.00
2022-09-20T06:54:31.722Z,4116.00
2022-09-20T06:55:31.848Z,4084.00
2022-09-20T06:56:31.968Z,4036.00
2022-09-20T06:57:32.118Z,3968.00
2022-09-20T06:58:32.270Z,3924.00
2022-09-20T06:59:32.419Z,3956.00
2022-09-20T07:00:32.529Z,4124.00
2022-09-20T07:01:32.670Z,4080.00
2022-09-20T07:02:32.793Z,3924.00
2022-09-20T07:03:32.877Z,3852.00
2022-09-20T07:04:33.029Z,3852.00
2022-09-20T07:05:33.147Z,3908.00
2022-09-20T07:06:33.279Z,4032.00
2022-09-20T07:07:33.369Z,4168.00
2022-09-20T07:08:33.465Z,4280.00
2022-09-20T07:09:33.626Z,4320.00
2022-09-20T07:10:33.730Z,4376.00
2022-09-20T07:11:33.870Z,4460.00
2022-09-20T07:12:33.937Z,4544.00
2022-09-20T07:13:34.090Z,4636.00
2022-09-20T07:14:34.185Z,4732.00
2022-09-20T07:15:34.334Z,4824.00
2022-09-20T07:16:34.501Z,4924.00
2022-09-20T07:17:34.590Z,5032.00
2022-09-20T07:18:34.687Z,5092.00
2022-09-20T07:19:34.838Z,5132.00
2022-09-20T07:20:34.950Z,5132.00
2022-09-20T07:21:35.105Z,5184.00
2022-09-20T07:22:35.205Z,5220.00
2022-09-20T07:23:36.108Z,5256.00
2022-09-20T07:24:36.927Z,5340.00
2022-09-20T07:25:35.648Z,5424.00
2022-09-20T07:26:35.746Z,5608.00
2022-09-20T07:27:35.877Z,5644.00
2022-09-20T07:28:35.989Z,5748.00
2022-09-20T07:29:36.138Z,5904.00
2022-09-20T07:30:36.236Z,6088.00
2022-09-20T07:31:36.499Z,6312.00
2022-09-20T07:32:36.525Z,6528.00
2022-09-20T07:33:36.674Z,6644.00
2022-09-20T07:34:36.784Z,6780.00
2022-09-20T07:35:36.966Z,6828.00
2022-09-20T07:36:37.057Z,6804.00
2022-09-20T07:37:37.399Z,6788.00
2022-09-20T07:38:37.277Z,6820.00
2022-09-20T07:39:37.426Z,6716.00
2022-09-20T07:40:37.614Z,6620.00
2022-09-20T07:41:37.685Z,6572.00
2022-09-20T07:42:37.767Z,6548.00
2022-09-20T07:43:37.886Z,6552.00
2022-09-20T07:44:38.034Z,6500.00
2022-09-20T07:45:38.165Z,6404.00
2022-09-20T07:46:38.424Z,6336.00
2022-09-20T07:47:38.434Z,6280.00
2022-09-20T07:48:38.554Z,6284.00
2022-09-20T07:49:38.667Z,6348.00
2022-09-20T07:50:38.776Z,6500.00
2022-09-20T07:51:38.917Z,6696.00
2022-09-20T07:52:38.995Z,6872.00
2022-09-20T07:53:39.157Z,7000.00
2022-09-20T07:54:39.244Z,7036.00
2022-09-20T07:55:39.395Z,6964.00
2022-09-20T07:56:39.515Z,6852.00
2022-09-20T07:57:39.627Z,6676.00
2022-09-20T07:58:39.737Z,6532.00
2022-09-20T07:59:39.855Z,6556.00
2022-09-20T08:00:39.956Z,6792.00
2022-09-20T08:01:40.817Z,7132.00
2022-09-20T08:02:40.340Z,7420.00
2022-09-20T08:03:40.392Z,7588.00
2022-09-20T08:04:40.498Z,7676.00
2022-09-20T08:05:40.647Z,7732.00
2022-09-20T08:06:40.778Z,7720.00
2022-09-20T08:07:40.886Z,7688.00
2022-09-20T08:08:40.975Z,7672.00
2022-09-20T08:09:41.125Z,7760.00
2022-09-20T08:10:41.237Z,7896.00
2022-09-20T08:11:41.397Z,8152.00
2022-09-20T08:14:42.715Z,8800.00
2022-09-20T08:15:41.867Z,8932.00
2022-09-20T08:16:42.229Z,8908.00
2022-09-20T08:17:42.114Z,8776.00
2022-09-20T08:18:42.251Z,8580.00
2022-09-20T08:19:42.388Z,8320.00
2022-09-20T08:20:42.479Z,8132.00
2022-09-20T08:21:42.602Z,8008.00
2022-09-20T08:22:42.723Z,7972.00
2022-09-20T08:23:42.864Z,7972.00
2022-09-20T08:24:42.956Z,7968.00
2022-09-20T08:25:43.099Z,7944.00
2022-09-20T08:26:43.463Z,7932.00
2022-09-20T08:27:43.465Z,7996.00
2022-09-20T08:28:43.517Z,8072.00
2022-09-20T08:29:43.631Z,8252.00
2022-09-20T08:30:43.738Z,8676.00
2022-09-20T08:31:43.991Z,8852.00
2022-09-20T08:32:44.028Z,9264.00
2022-09-20T08:33:44.122Z,9884.00
2022-09-20T08:34:49.202Z,10132.00
2022-09-20T08:35:45.367Z,10700.00
2022-09-20T08:36:44.515Z,11280.00
2022-09-20T08:37:44.644Z,11496.00
2022-09-20T08:40:01.190Z,11456.00
2022-09-20T08:40:46.036Z,11632.00
2022-09-20T08:41:45.112Z,11704.00
2022-09-20T08:42:45.277Z,11672.00
2022-09-20T08:43:45.775Z,11440.00
2022-09-20T08:44:45.771Z,11320.00
2022-09-20T08:45:45.625Z,11240.00
2022-09-20T08:46:45.913Z,11328.00
2022-09-20T08:47:46.164Z,11688.00
2022-09-20T08:48:45.973Z,12248.00
2022-09-20T08:49:46.592Z,12932.00
2022-09-20T08:50:46.202Z,13296.00
2022-09-20T08:51:48.553Z,13288.00
2022-09-20T08:52:47.317Z,12912.00
2022-09-20T08:53:49.264Z,12504.00
2022-09-20T08:54:46.704Z,12416.00
2022-09-20T08:55:46.833Z,12292.00
2022-09-20T08:56:46.957Z,12312.00
2022-09-20T08:57:47.055Z,12224.00
2022-09-20T08:58:47.164Z,11876.00
2022-09-20T08:59:47.481Z,11384.00
2022-09-20T09:00:47.475Z,11052.00
2022-09-20T09:01:47.560Z,11004.00
2022-09-20T09:02:47.645Z,10996.00
2022-09-20T09:03:47.803Z,10980.00
2022-09-20T09:04:47.923Z,11100.00
2022-09-20T09:05:48.064Z,11460.00
2022-09-20T09:06:48.142Z,11940.00
2022-09-20T09:07:48.304Z,12232.00
2022-09-20T09:08:48.843Z,11324.00
2022-09-20T09:09:49.296Z,13028.00
2022-09-20T09:10:48.662Z,13304.00
2022-09-20T09:11:48.848Z,13052.00
2022-09-20T09:12:49.080Z,13616.00
2022-09-20T09:13:49.083Z,14492.00
2022-09-20T09:14:49.167Z,13740.00
2022-09-20T09:15:49.332Z,13744.00
2022-09-20T09:16:49.469Z,13860.00
2022-09-20T09:17:49.545Z,13392.00
2022-09-20T09:18:49.662Z,13680.00
2022-09-20T09:19:49.795Z,13936.00
2022-09-20T09:20:49.981Z,13060.00
2022-09-20T09:21:51.015Z,12852.00
2022-09-20T09:22:50.324Z,13588.00
2022-09-20T09:23:50.317Z,14240.00
2022-09-20T09:24:50.436Z,14468.00
2022-09-20T09:25:50.576Z,14416.00
2022-09-20T09:26:50.676Z,14636.00
2022-09-20T09:27:50.787Z,15124.00
2022-09-20T09:28:50.883Z,16064.00
2022-09-20T09:29:51.037Z,17696.00
2022-09-20T09:30:51.144Z,17824.00
2022-09-20T09:31:51.410Z,16992.00
2022-09-20T09:32:51.415Z,17600.00
2022-09-20T09:33:51.542Z,16224.00
2022-09-20T09:34:51.654Z,17632.00
2022-09-20T09:35:51.825Z,17664.00
2022-09-20T09:36:51.927Z,18112.00
2022-09-20T09:37:52.045Z,17824.00
2022-09-20T09:38:52.148Z,18240.00
2022-09-20T09:39:52.276Z,16576.00
2022-09-20T09:40:52.373Z,17440.00
2022-09-20T09:41:52.514Z,19616.00
2022-09-20T09:42:52.598Z,21088.00
2022-09-20T09:43:52.830Z,23808.00
2022-09-20T09:44:52.873Z,21760.00
2022-09-20T09:45:53.016Z,25920.00
2022-09-20T09:46:53.090Z,40832.00
2022-09-20T09:47:53.185Z,36096.00
2022-09-20T09:48:53.307Z,38912.00
2022-09-20T09:49:57.664Z,42176.00
2022-09-20T09:50:54.568Z,41152.00
2022-09-20T09:51:53.667Z,37856.00
2022-09-20T09:52:53.785Z,39808.00
2022-09-20T09:53:53.926Z,43584.00
2022-09-20T09:54:54.032Z,38528.00
2022-09-20T09:55:54.125Z,39872.00
2022-09-20T09:56:54.238Z,41408.00
2022-09-20T09:57:54.397Z,40192.00
2022-09-20T09:58:54.565Z,44512.00
2022-09-20T09:59:54.651Z,42688.00
2022-09-20T10:00:54.778Z,40704.00
2022-09-20T10:01:54.910Z,43392.00
2022-09-20T10:02:55.001Z,51776.00
2022-09-20T10:03:55.147Z,49504.00
2022-09-20T10:04:55.343Z,49280.00
2022-09-20T10:05:55.397Z,25472.00
2022-09-20T10:06:55.485Z,15144.00
2022-09-20T10:07:55.640Z,14320.00
2022-09-20T10:08:55.757Z,20864.00
2022-09-20T10:09:55.875Z,15208.00
2022-09-20T10:10:56.156Z,16992.00
2022-09-20T10:11:56.142Z,30624.00
2022-09-20T10:12:56.269Z,20128.00
2022-09-20T10:13:56.356Z,17152.00
2022-09-20T10:14:56.469Z,14792.00
2022-09-20T10:15:56.640Z,14144.00
2022-09-20T10:16:56.853Z,14500.00
2022-09-20T10:17:56.879Z,14864.00
2022-09-20T10:18:56.996Z,14812.00
2022-09-20T10:19:57.134Z,14336.00
2022-09-20T10:20:57.238Z,21344.00
2022-09-20T10:21:57.335Z,12768.00
2022-09-20T10:23:29.974Z,12896.00
2022-09-20T10:24:03.569Z,10524.00
2022-09-20T10:24:59.328Z,9980.00
2022-09-20T10:25:57.887Z,9936.00
2022-09-20T10:26:57.971Z,9992.00
2022-09-20T10:27:58.112Z,10084.00
2022-09-20T10:28:58.188Z,10368.00
2022-09-20T10:29:58.351Z,10664.00
2022-09-20T10:30:58.592Z,10872.00
2022-09-20T10:31:58.588Z,11148.00
2022-09-20T10:32:58.849Z,11548.00
2022-09-20T10:33:58.822Z,11380.00
2022-09-20T10:34:58.950Z,13480.00
2022-09-20T10:35:59.164Z,9968.00
2022-09-20T10:36:59.130Z,9376.00
2022-09-20T10:37:59.310Z,9248.00
2022-09-20T10:38:59.382Z,8956.00
2022-09-20T10:39:59.736Z,8876.00
2022-09-20T10:40:59.667Z,8960.00
2022-09-20T10:41:59.852Z,9204.00
2022-09-20T10:42:59.928Z,9652.00
2022-09-20T10:44:04.806Z,10300.00
2022-09-20T10:45:01.186Z,11384.00
2022-09-20T10:46:21.059Z,12924.00
2022-09-20T10:47:01.497Z,14884.00
2022-09-20T10:48:00.600Z,17152.00
2022-09-20T10:49:00.680Z,19200.00
2022-09-20T10:50:00.959Z,21408.00
2022-09-20T10:51:01.960Z,26208.00
2022-09-20T10:52:01.070Z,20384.00
2022-09-20T10:53:01.248Z,19264.00
2022-09-20T10:54:01.361Z,18304.00
2022-09-20T10:55:01.470Z,17856.00
2022-09-20T10:56:01.621Z,16832.00
2022-09-20T10:57:01.748Z,16224.00
2022-09-20T10:58:01.870Z,15180.00
2022-09-20T10:59:01.978Z,14072.00
2022-09-20T11:00:02.086Z,12884.00
2022-09-20T11:01:02.270Z,11696.00
2022-09-20T11:02:02.318Z,10664.00
2022-09-20T11:03:02.445Z,9784.00
2022-09-20T11:04:02.521Z,8980.00
2022-09-20T11:05:02.668Z,8164.00
2022-09-20T11:06:02.782Z,7560.00
2022-09-20T11:07:02.964Z,7060.00
2022-09-20T11:08:03.071Z,6568.00
2022-09-20T11:09:03.180Z,6200.00
2022-09-20T11:10:03.271Z,5960.00
2022-09-20T11:11:03.384Z,5708.00
2022-09-20T11:12:03.518Z,5524.00
2022-09-20T11:13:03.679Z,5460.00
2022-09-20T11:14:03.771Z,5492.00
2022-09-20T11:15:04.072Z,5524.00
2022-09-20T11:16:04.044Z,5492.00
2022-09-20T11:17:04.139Z,5444.00
2022-09-20T11:18:04.300Z,5432.00
2022-09-20T11:19:06.401Z,5436.00
2022-09-20T11:20:07.504Z,5468.00
2022-09-20T11:21:04.679Z,5548.00
2022-09-20T11:22:04.902Z,5640.00
2022-09-20T11:23:04.952Z,5820.00
2022-09-20T11:24:05.155Z,6012.00
2022-09-20T11:25:05.587Z,6216.00
2022-09-20T11:26:05.381Z,6396.00
2022-09-20T11:27:05.441Z,6616.00
2022-09-20T11:28:05.548Z,6828.00
2022-09-20T11:29:05.709Z,7120.00
2022-09-20T11:30:06.420Z,7412.00
2022-09-20T11:31:05.948Z,7704.00
2022-09-20T11:32:06.101Z,7920.00
2022-09-20T11:33:06.170Z,8036.00
2022-09-20T11:34:06.362Z,8196.00
2022-09-20T11:35:06.398Z,8408.00
2022-09-20T11:36:06.541Z,8652.00
2022-09-20T11:37:06.728Z,9008.00
2022-09-20T11:38:07.001Z,9332.00
2022-09-20T11:39:07.190Z,9596.00
2022-09-20T11:40:08.051Z,9856.00
2022-09-20T11:41:07.330Z,10056.00
2022-09-20T11:42:07.324Z,10184.00
2022-09-20T11:43:07.488Z,10372.00
2022-09-20T11:44:07.590Z,10596.00
2022-09-20T11:45:07.822Z,10880.00
2022-09-20T11:46:07.846Z,11020.00
2022-09-20T11:47:07.922Z,11032.00
2022-09-20T11:48:08.063Z,11092.00
2022-09-20T11:49:08.211Z,11264.00
2022-09-20T11:50:08.381Z,11488.00
2022-09-20T11:51:08.441Z,11768.00
2022-09-20T11:52:08.543Z,12296.00
2022-09-20T11:53:08.682Z,14032.00
2022-09-20T11:54:08.866Z,13760.00
2022-09-20T11:55:09.010Z,13176.00
2022-09-20T11:56:09.118Z,14752.00
2022-09-20T11:57:09.219Z,78400.00
2022-09-20T11:58:09.360Z,44704.00
2022-09-20T11:59:09.461Z,75616.00
2022-09-20T12:00:09.990Z,24640.00
2022-09-20T12:01:09.702Z,19776.00
2022-09-20T12:02:09.941Z,17472.00
2022-09-20T12:03:10.070Z,20448.00
2022-09-20T12:04:31.311Z,57056.00
2022-09-20T12:05:11.154Z,36704.00
2022-09-20T12:06:10.311Z,76000.00
2022-09-20T12:07:14.458Z,25088.00
2022-09-20T12:08:11.513Z,46080.00
2022-09-20T12:09:10.641Z,64864.00
2022-09-20T12:10:10.784Z,25728.00
2022-09-20T12:11:10.954Z,20032.00
2022-09-20T12:12:11.029Z,17568.00
2022-09-20T12:13:11.169Z,76736.00
2022-09-20T12:14:11.315Z,15968.00
2022-09-20T12:15:11.463Z,14884.00
2022-09-20T12:16:11.605Z,15560.00
2022-09-20T12:17:11.683Z,10436.00
2022-09-20T12:18:11.784Z,9408.00
2022-09-20T12:19:11.931Z,8592.00
2022-09-20T12:20:12.029Z,7904.00
2022-09-20T12:21:15.602Z,7248.00
2022-09-20T12:22:12.312Z,6672.00
2022-09-20T12:23:12.794Z,6176.00
2022-09-20T12:24:12.553Z,5840.00
2022-09-20T12:25:12.812Z,5652.00
2022-09-20T12:26:12.802Z,5620.00
2022-09-20T12:27:12.963Z,5728.00
2022-09-20T12:28:13.053Z,5964.00
2022-09-20T12:29:13.193Z,6312.00
2022-09-20T12:30:13.314Z,6812.00
2022-09-20T12:31:13.489Z,7488.00
2022-09-20T12:32:13.575Z,8344.00
2022-09-20T12:33:13.703Z,9584.00
2022-09-20T12:34:13.793Z,11060.00